sensor_id;sensor_type;location;lat;lon;timestamp;P1;durP1;ratioP1;P2;durP2;ratioP2
23288;SDS011;11813;50.834;4.280;2022-08-19T00:01:22;17.08;;;15.18;;
23288;SDS011;11813;50.834;4.280;2022-08-19T00:03:49;20.40;;;16.67;;
23288;SDS011;11813;50.834;4.280;2022-08-19T00:06:14;19.80;;;16.83;;
23288;SDS011;11813;50.834;4.280;2022-08-19T00:08:40;20.88;;;16.75;;
23288;SDS011;11813;50.834;4.280;2022-08-19T00:11:06;18.38;;;16.02;;
23288;SDS011;11813;50.834;4.280;2022-08-19T00:13:33;18.98;;;16.45;;
23288;SDS011;11813;50.834;4.280;2022-08-19T00:15:59;23.95;;;19.23;;
23288;SDS011;11813;50.834;4.280;2022-08-19T00:18:25;23.63;;;19.52;;
23288;SDS011;11813;50.834;4.280;2022-08-19T00:20:51;33.88;;;23.25;;
23288;SDS011;11813;50.834;4.280;2022-08-19T00:23:17;28.23;;;21.70;;
23288;SDS011;11813;50.834;4.280;2022-08-19T00:25:43;28.10;;;21.80;;
23288;SDS011;11813;50.834;4.280;2022-08-19T00:28:09;33.55;;;25.20;;
23288;SDS011;11813;50.834;4.280;2022-08-19T00:30:35;39.78;;;29.65;;
23288;SDS011;11813;50.834;4.280;2022-08-19T00:33:01;44.95;;;29.98;;
23288;SDS011;11813;50.834;4.280;2022-08-19T00:35:27;48.30;;;33.83;;
23288;SDS011;11813;50.834;4.280;2022-08-19T00:37:53;44.72;;;32.40;;
23288;SDS011;11813;50.834;4.280;2022-08-19T00:40:19;46.58;;;33.25;;
23288;SDS011;11813;50.834;4.280;2022-08-19T00:42:45;48.88;;;33.13;;
23288;SDS011;11813;50.834;4.280;2022-08-19T00:45:12;47.25;;;33.65;;
23288;SDS011;11813;50.834;4.280;2022-08-19T00:47:42;51.42;;;33.80;;
23288;SDS011;11813;50.834;4.280;2022-08-19T00:50:09;48.30;;;32.75;;
23288;SDS011;11813;50.834;4.280;2022-08-19T00:52:39;45.38;;;32.50;;
23288;SDS011;11813;50.834;4.280;2022-08-19T00:55:10;48.25;;;32.30;;
23288;SDS011;11813;50.834;4.280;2022-08-19T00:57:44;42.72;;;31.70;;
23288;SDS011;11813;50.834;4.280;2022-08-19T01:00:15;41.65;;;31.05;;
23288;SDS011;11813;50.834;4.280;2022-08-19T01:02:43;41.38;;;28.80;;
23288;SDS011;11813;50.834;4.280;2022-08-19T01:05:11;39.75;;;28.30;;
23288;SDS011;11813;50.834;4.280;2022-08-19T01:07:40;39.65;;;28.67;;
23288;SDS011;11813;50.834;4.280;2022-08-19T01:10:08;37.55;;;28.92;;
23288;SDS011;11813;50.834;4.280;2022-08-19T01:12:40;40.60;;;28.50;;
23288;SDS011;11813;50.834;4.280;2022-08-19T01:15:07;41.10;;;30.48;;
23288;SDS011;11813;50.834;4.280;2022-08-19T01:17:36;42.25;;;28.88;;
23288;SDS011;11813;50.834;4.280;2022-08-19T01:20:04;39.85;;;29.58;;
23288;SDS011;11813;50.834;4.280;2022-08-19T01:25:07;45.53;;;32.17;;
23288;SDS011;11813;50.834;4.280;2022-08-19T01:27:37;41.70;;;31.40;;
23288;SDS011;11813;50.834;4.280;2022-08-19T01:30:13;46.70;;;32.25;;
23288;SDS011;11813;50.834;4.280;2022-08-19T01:32:49;47.78;;;33.55;;
23288;SDS011;11813;50.834;4.280;2022-08-19T01:35:17;45.25;;;32.78;;
23288;SDS011;11813;50.834;4.280;2022-08-19T01:37:48;48.92;;;33.58;;
23288;SDS011;11813;50.834;4.280;2022-08-19T01:40:17;46.80;;;34.17;;
23288;SDS011;11813;50.834;4.280;2022-08-19T01:42:45;47.10;;;33.28;;
23288;SDS011;11813;50.834;4.280;2022-08-19T01:45:15;44.80;;;32.25;;
23288;SDS011;11813;50.834;4.280;2022-08-19T01:47:41;47.53;;;34.47;;
23288;SDS011;11813;50.834;4.280;2022-08-19T01:50:08;45.97;;;32.78;;
23288;SDS011;11813;50.834;4.280;2022-08-19T01:52:36;48.65;;;33.30;;
23288;SDS011;11813;50.834;4.280;2022-08-19T01:55:03;43.20;;;31.35;;
23288;SDS011;11813;50.834;4.280;2022-08-19T01:57:30;46.50;;;34.58;;
23288;SDS011;11813;50.834;4.280;2022-08-19T01:59:56;42.13;;;30.27;;
23288;SDS011;11813;50.834;4.280;2022-08-19T02:02:22;43.97;;;31.92;;
23288;SDS011;11813;50.834;4.280;2022-08-19T02:04:48;42.92;;;31.77;;
23288;SDS011;11813;50.834;4.280;2022-08-19T02:07:13;42.78;;;30.33;;
23288;SDS011;11813;50.834;4.280;2022-08-19T02:09:39;45.28;;;31.55;;
23288;SDS011;11813;50.834;4.280;2022-08-19T02:12:06;47.45;;;31.80;;
23288;SDS011;11813;50.834;4.280;2022-08-19T02:14:34;42.83;;;31.00;;
23288;SDS011;11813;50.834;4.280;2022-08-19T02:17:00;43.63;;;32.50;;
23288;SDS011;11813;50.834;4.280;2022-08-19T02:19:26;43.60;;;31.40;;
23288;SDS011;11813;50.834;4.280;2022-08-19T02:21:52;42.58;;;31.08;;
23288;SDS011;11813;50.834;4.280;2022-08-19T02:24:18;43.30;;;30.98;;
23288;SDS011;11813;50.834;4.280;2022-08-19T02:26:44;40.85;;;30.52;;
23288;SDS011;11813;50.834;4.280;2022-08-19T02:29:09;41.70;;;31.90;;
23288;SDS011;11813;50.834;4.280;2022-08-19T02:31:35;41.85;;;30.77;;
23288;SDS011;11813;50.834;4.280;2022-08-19T02:34:01;36.55;;;28.25;;
23288;SDS011;11813;50.834;4.280;2022-08-19T02:36:27;38.85;;;29.63;;
23288;SDS011;11813;50.834;4.280;2022-08-19T02:38:52;40.08;;;29.70;;
23288;SDS011;11813;50.834;4.280;2022-08-19T02:41:20;44.28;;;31.63;;
23288;SDS011;11813;50.834;4.280;2022-08-19T02:43:51;44.00;;;30.58;;
23288;SDS011;11813;50.834;4.280;2022-08-19T02:46:21;40.50;;;30.48;;
23288;SDS011;11813;50.834;4.280;2022-08-19T02:48:52;46.67;;;30.23;;
23288;SDS011;11813;50.834;4.280;2022-08-19T02:51:20;41.10;;;29.25;;
23288;SDS011;11813;50.834;4.280;2022-08-19T02:53:47;38.85;;;27.77;;
23288;SDS011;11813;50.834;4.280;2022-08-19T02:56:14;39.03;;;28.60;;
23288;SDS011;11813;50.834;4.280;2022-08-19T02:58:40;41.65;;;29.50;;
23288;SDS011;11813;50.834;4.280;2022-08-19T03:01:06;38.10;;;28.85;;
23288;SDS011;11813;50.834;4.280;2022-08-19T03:03:32;36.38;;;27.70;;
23288;SDS011;11813;50.834;4.280;2022-08-19T03:06:08;37.33;;;26.00;;
23288;SDS011;11813;50.834;4.280;2022-08-19T03:08:38;37.80;;;28.33;;
23288;SDS011;11813;50.834;4.280;2022-08-19T03:11:06;41.88;;;28.45;;
23288;SDS011;11813;50.834;4.280;2022-08-19T03:13:36;40.00;;;28.13;;
23288;SDS011;11813;50.834;4.280;2022-08-19T03:16:03;39.67;;;26.55;;
23288;SDS011;11813;50.834;4.280;2022-08-19T03:18:30;34.75;;;26.05;;
23288;SDS011;11813;50.834;4.280;2022-08-19T03:20:56;40.65;;;26.45;;
23288;SDS011;11813;50.834;4.280;2022-08-19T03:23:22;40.35;;;28.25;;
23288;SDS011;11813;50.834;4.280;2022-08-19T03:25:49;36.42;;;25.88;;
23288;SDS011;11813;50.834;4.280;2022-08-19T03:28:16;37.80;;;25.80;;
23288;SDS011;11813;50.834;4.280;2022-08-19T03:30:42;36.70;;;26.73;;
23288;SDS011;11813;50.834;4.280;2022-08-19T03:33:21;35.03;;;26.35;;
23288;SDS011;11813;50.834;4.280;2022-08-19T03:35:51;42.03;;;27.05;;
23288;SDS011;11813;50.834;4.280;2022-08-19T03:38:27;38.78;;;27.20;;
23288;SDS011;11813;50.834;4.280;2022-08-19T03:40:53;35.73;;;26.43;;
23288;SDS011;11813;50.834;4.280;2022-08-19T03:43:19;40.40;;;26.90;;
23288;SDS011;11813;50.834;4.280;2022-08-19T03:45:44;39.07;;;26.50;;
23288;SDS011;11813;50.834;4.280;2022-08-19T03:48:10;36.37;;;26.03;;
23288;SDS011;11813;50.834;4.280;2022-08-19T03:50:39;36.50;;;24.80;;
23288;SDS011;11813;50.834;4.280;2022-08-19T03:53:05;39.13;;;25.97;;
23288;SDS011;11813;50.834;4.280;2022-08-19T03:55:33;38.63;;;25.03;;
23288;SDS011;11813;50.834;4.280;2022-08-19T03:58:03;35.67;;;24.30;;
23288;SDS011;11813;50.834;4.280;2022-08-19T04:00:29;34.33;;;25.03;;
23288;SDS011;11813;50.834;4.280;2022-08-19T04:02:54;40.53;;;26.13;;
23288;SDS011;11813;50.834;4.280;2022-08-19T04:05:20;39.20;;;25.73;;
23288;SDS011;11813;50.834;4.280;2022-08-19T04:07:45;42.60;;;24.67;;
23288;SDS011;11813;50.834;4.280;2022-08-19T04:10:11;39.90;;;25.90;;
23288;SDS011;11813;50.834;4.280;2022-08-19T04:12:36;34.15;;;24.65;;
23288;SDS011;11813;50.834;4.280;2022-08-19T04:15:02;38.83;;;24.60;;
23288;SDS011;11813;50.834;4.280;2022-08-19T04:17:28;40.47;;;26.47;;
23288;SDS011;11813;50.834;4.280;2022-08-19T04:19:54;35.40;;;24.17;;
23288;SDS011;11813;50.834;4.280;2022-08-19T04:22:19;39.43;;;24.60;;
23288;SDS011;11813;50.834;4.280;2022-08-19T04:24:45;37.43;;;24.77;;
23288;SDS011;11813;50.834;4.280;2022-08-19T04:27:11;34.47;;;24.50;;
23288;SDS011;11813;50.834;4.280;2022-08-19T04:29:36;41.47;;;23.83;;
23288;SDS011;11813;50.834;4.280;2022-08-19T04:32:04;38.30;;;23.43;;
23288;SDS011;11813;50.834;4.280;2022-08-19T04:34:30;41.03;;;24.93;;
23288;SDS011;11813;50.834;4.280;2022-08-19T04:36:56;38.80;;;22.43;;
23288;SDS011;11813;50.834;4.280;2022-08-19T04:39:25;35.13;;;22.40;;
23288;SDS011;11813;50.834;4.280;2022-08-19T04:42:13;33.00;;;22.73;;
23288;SDS011;11813;50.834;4.280;2022-08-19T04:44:58;39.33;;;22.33;;
23288;SDS011;11813;50.834;4.280;2022-08-19T04:47:24;32.90;;;22.83;;
23288;SDS011;11813;50.834;4.280;2022-08-19T04:49:50;33.43;;;22.77;;
23288;SDS011;11813;50.834;4.280;2022-08-19T04:52:16;36.60;;;23.20;;
23288;SDS011;11813;50.834;4.280;2022-08-19T04:54:42;34.57;;;22.83;;
23288;SDS011;11813;50.834;4.280;2022-08-19T04:57:07;36.17;;;21.37;;
23288;SDS011;11813;50.834;4.280;2022-08-19T04:59:34;37.27;;;21.80;;
23288;SDS011;11813;50.834;4.280;2022-08-19T05:02:02;41.00;;;23.10;;
23288;SDS011;11813;50.834;4.280;2022-08-19T05:04:28;34.37;;;21.63;;
23288;SDS011;11813;50.834;4.280;2022-08-19T05:06:56;35.77;;;22.67;;
23288;SDS011;11813;50.834;4.280;2022-08-19T05:09:22;36.07;;;22.97;;
23288;SDS011;11813;50.834;4.280;2022-08-19T05:11:47;38.00;;;22.37;;
23288;SDS011;11813;50.834;4.280;2022-08-19T05:14:14;33.13;;;20.87;;
23288;SDS011;11813;50.834;4.280;2022-08-19T05:16:40;40.53;;;21.23;;
23288;SDS011;11813;50.834;4.280;2022-08-19T05:19:05;33.97;;;21.33;;
23288;SDS011;11813;50.834;4.280;2022-08-19T05:21:50;37.53;;;22.07;;
23288;SDS011;11813;50.834;4.280;2022-08-19T05:24:34;36.37;;;22.20;;
23288;SDS011;11813;50.834;4.280;2022-08-19T05:27:00;37.23;;;22.53;;
23288;SDS011;11813;50.834;4.280;2022-08-19T05:29:28;34.60;;;22.17;;
23288;SDS011;11813;50.834;4.280;2022-08-19T05:31:54;38.03;;;23.70;;
23288;SDS011;11813;50.834;4.280;2022-08-19T05:34:21;38.43;;;22.97;;
23288;SDS011;11813;50.834;4.280;2022-08-19T05:36:50;40.37;;;24.27;;
23288;SDS011;11813;50.834;4.280;2022-08-19T05:39:20;39.90;;;24.77;;
23288;SDS011;11813;50.834;4.280;2022-08-19T05:41:47;43.60;;;25.80;;
23288;SDS011;11813;50.834;4.280;2022-08-19T05:44:15;37.60;;;23.83;;
23288;SDS011;11813;50.834;4.280;2022-08-19T05:46:42;35.17;;;23.50;;
23288;SDS011;11813;50.834;4.280;2022-08-19T05:49:09;42.67;;;24.70;;
23288;SDS011;11813;50.834;4.280;2022-08-19T05:51:35;43.07;;;23.13;;
23288;SDS011;11813;50.834;4.280;2022-08-19T05:54:05;44.40;;;22.80;;
23288;SDS011;11813;50.834;4.280;2022-08-19T05:56:32;34.77;;;22.70;;
23288;SDS011;11813;50.834;4.280;2022-08-19T05:58:59;35.53;;;22.83;;
23288;SDS011;11813;50.834;4.280;2022-08-19T06:01:26;36.03;;;22.37;;
23288;SDS011;11813;50.834;4.280;2022-08-19T06:03:52;39.87;;;23.13;;
23288;SDS011;11813;50.834;4.280;2022-08-19T06:06:18;37.33;;;22.33;;
23288;SDS011;11813;50.834;4.280;2022-08-19T06:08:45;34.57;;;20.40;;
23288;SDS011;11813;50.834;4.280;2022-08-19T06:11:31;34.33;;;19.53;;
23288;SDS011;11813;50.834;4.280;2022-08-19T06:14:04;29.20;;;18.23;;
23288;SDS011;11813;50.834;4.280;2022-08-19T06:16:36;31.00;;;18.27;;
23288;SDS011;11813;50.834;4.280;2022-08-19T06:19:04;31.83;;;18.90;;
23288;SDS011;11813;50.834;4.280;2022-08-19T06:21:32;25.77;;;17.47;;
23288;SDS011;11813;50.834;4.280;2022-08-19T06:23:59;39.60;;;16.67;;
23288;SDS011;11813;50.834;4.280;2022-08-19T06:26:25;28.00;;;16.60;;
23288;SDS011;11813;50.834;4.280;2022-08-19T06:28:51;25.47;;;15.60;;
23288;SDS011;11813;50.834;4.280;2022-08-19T06:31:25;25.47;;;14.80;;
23288;SDS011;11813;50.834;4.280;2022-08-19T06:33:52;22.33;;;14.43;;
23288;SDS011;11813;50.834;4.280;2022-08-19T06:38:58;25.83;;;13.47;;
23288;SDS011;11813;50.834;4.280;2022-08-19T06:41:29;22.80;;;13.90;;
23288;SDS011;11813;50.834;4.280;2022-08-19T06:43:55;23.70;;;12.67;;
23288;SDS011;11813;50.834;4.280;2022-08-19T06:46:22;24.23;;;11.83;;
23288;SDS011;11813;50.834;4.280;2022-08-19T06:48:47;23.33;;;12.53;;
23288;SDS011;11813;50.834;4.280;2022-08-19T06:51:14;20.90;;;12.13;;
23288;SDS011;11813;50.834;4.280;2022-08-19T06:53:43;22.27;;;12.00;;
23288;SDS011;11813;50.834;4.280;2022-08-19T06:56:12;19.45;;;12.30;;
23288;SDS011;11813;50.834;4.280;2022-08-19T06:58:39;25.17;;;12.02;;
23288;SDS011;11813;50.834;4.280;2022-08-19T07:01:05;20.58;;;11.63;;
23288;SDS011;11813;50.834;4.280;2022-08-19T07:03:31;19.40;;;11.75;;
23288;SDS011;11813;50.834;4.280;2022-08-19T07:06:02;20.85;;;11.43;;
23288;SDS011;11813;50.834;4.280;2022-08-19T07:08:29;20.65;;;11.82;;
23288;SDS011;11813;50.834;4.280;2022-08-19T07:10:55;21.60;;;11.18;;
23288;SDS011;11813;50.834;4.280;2022-08-19T07:13:20;14.45;;;10.15;;
23288;SDS011;11813;50.834;4.280;2022-08-19T07:15:47;19.50;;;12.00;;
23288;SDS011;11813;50.834;4.280;2022-08-19T07:18:14;20.33;;;10.98;;
23288;SDS011;11813;50.834;4.280;2022-08-19T07:20:40;19.02;;;10.88;;
23288;SDS011;11813;50.834;4.280;2022-08-19T07:23:06;19.60;;;10.00;;
23288;SDS011;11813;50.834;4.280;2022-08-19T07:25:32;22.13;;;10.98;;
23288;SDS011;11813;50.834;4.280;2022-08-19T07:27:57;15.40;;;9.52;;
23288;SDS011;11813;50.834;4.280;2022-08-19T07:30:23;18.25;;;10.13;;
23288;SDS011;11813;50.834;4.280;2022-08-19T07:32:49;15.30;;;9.48;;
23288;SDS011;11813;50.834;4.280;2022-08-19T07:35:17;13.75;;;9.00;;
23288;SDS011;11813;50.834;4.280;2022-08-19T07:37:44;16.35;;;9.73;;
23288;SDS011;11813;50.834;4.280;2022-08-19T07:40:11;14.73;;;9.57;;
23288;SDS011;11813;50.834;4.280;2022-08-19T07:42:37;16.98;;;9.05;;
23288;SDS011;11813;50.834;4.280;2022-08-19T07:45:03;16.17;;;9.38;;
23288;SDS011;11813;50.834;4.280;2022-08-19T07:47:30;17.25;;;9.75;;
23288;SDS011;11813;50.834;4.280;2022-08-19T07:49:56;14.25;;;9.35;;
23288;SDS011;11813;50.834;4.280;2022-08-19T07:52:22;15.43;;;9.55;;
23288;SDS011;11813;50.834;4.280;2022-08-19T07:54:47;14.48;;;8.93;;
23288;SDS011;11813;50.834;4.280;2022-08-19T07:57:14;17.60;;;8.85;;
23288;SDS011;11813;50.834;4.280;2022-08-19T07:59:40;14.20;;;8.70;;
23288;SDS011;11813;50.834;4.280;2022-08-19T08:02:06;13.43;;;8.73;;
23288;SDS011;11813;50.834;4.280;2022-08-19T08:04:33;14.77;;;9.23;;
23288;SDS011;11813;50.834;4.280;2022-08-19T08:07:17;12.63;;;8.82;;
23288;SDS011;11813;50.834;4.280;2022-08-19T08:10:03;15.95;;;8.32;;
23288;SDS011;11813;50.834;4.280;2022-08-19T08:12:32;12.07;;;8.10;;
23288;SDS011;11813;50.834;4.280;2022-08-19T08:15:07;17.65;;;8.93;;
23288;SDS011;11813;50.834;4.280;2022-08-19T08:17:36;18.45;;;8.15;;
23288;SDS011;11813;50.834;4.280;2022-08-19T08:20:03;12.70;;;7.78;;
23288;SDS011;11813;50.834;4.280;2022-08-19T08:22:32;13.57;;;8.38;;
23288;SDS011;11813;50.834;4.280;2022-08-19T08:25:17;11.68;;;8.05;;
23288;SDS011;11813;50.834;4.280;2022-08-19T08:27:44;13.02;;;7.57;;
23288;SDS011;11813;50.834;4.280;2022-08-19T08:30:15;8.90;;;6.60;;
23288;SDS011;11813;50.834;4.280;2022-08-19T08:32:43;13.13;;;7.20;;
23288;SDS011;11813;50.834;4.280;2022-08-19T08:35:10;10.60;;;6.22;;
23288;SDS011;11813;50.834;4.280;2022-08-19T08:37:38;8.88;;;6.53;;
23288;SDS011;11813;50.834;4.280;2022-08-19T08:40:05;8.63;;;6.15;;
23288;SDS011;11813;50.834;4.280;2022-08-19T08:42:45;9.40;;;6.03;;
23288;SDS011;11813;50.834;4.280;2022-08-19T08:45:25;11.75;;;6.38;;
23288;SDS011;11813;50.834;4.280;2022-08-19T08:47:52;8.75;;;5.80;;
23288;SDS011;11813;50.834;4.280;2022-08-19T08:50:39;9.43;;;6.55;;
23288;SDS011;11813;50.834;4.280;2022-08-19T08:53:10;14.57;;;6.38;;
23288;SDS011;11813;50.834;4.280;2022-08-19T08:55:40;10.05;;;7.25;;
23288;SDS011;11813;50.834;4.280;2022-08-19T08:58:08;10.23;;;5.93;;
23288;SDS011;11813;50.834;4.280;2022-08-19T09:00:40;8.35;;;6.70;;
23288;SDS011;11813;50.834;4.280;2022-08-19T09:03:16;8.80;;;5.95;;
23288;SDS011;11813;50.834;4.280;2022-08-19T09:06:04;8.90;;;6.15;;
23288;SDS011;11813;50.834;4.280;2022-08-19T09:17:10;11.65;;;5.93;;
23288;SDS011;11813;50.834;4.280;2022-08-19T09:19:53;9.88;;;6.65;;
23288;SDS011;11813;50.834;4.280;2022-08-19T09:22:21;9.52;;;6.35;;
23288;SDS011;11813;50.834;4.280;2022-08-19T09:24:50;10.50;;;6.00;;
23288;SDS011;11813;50.834;4.280;2022-08-19T09:27:17;7.53;;;6.07;;
23288;SDS011;11813;50.834;4.280;2022-08-19T09:29:45;11.02;;;6.43;;
23288;SDS011;11813;50.834;4.280;2022-08-19T09:32:13;12.35;;;6.07;;
23288;SDS011;11813;50.834;4.280;2022-08-19T09:34:39;8.38;;;6.05;;
23288;SDS011;11813;50.834;4.280;2022-08-19T09:37:04;11.02;;;6.32;;
23288;SDS011;11813;50.834;4.280;2022-08-19T09:39:30;10.82;;;6.82;;
23288;SDS011;11813;50.834;4.280;2022-08-19T09:41:56;10.25;;;5.72;;
23288;SDS011;11813;50.834;4.280;2022-08-19T09:44:21;9.48;;;5.72;;
23288;SDS011;11813;50.834;4.280;2022-08-19T09:46:48;9.73;;;6.22;;
23288;SDS011;11813;50.834;4.280;2022-08-19T09:49:15;10.32;;;6.20;;
23288;SDS011;11813;50.834;4.280;2022-08-19T09:51:42;8.85;;;6.13;;
23288;SDS011;11813;50.834;4.280;2022-08-19T09:54:08;9.88;;;5.75;;
23288;SDS011;11813;50.834;4.280;2022-08-19T09:56:33;10.40;;;5.88;;
23288;SDS011;11813;50.834;4.280;2022-08-19T09:58:59;7.55;;;5.47;;
23288;SDS011;11813;50.834;4.280;2022-08-19T10:01:27;7.57;;;5.63;;
23288;SDS011;11813;50.834;4.280;2022-08-19T10:03:56;7.90;;;5.55;;
23288;SDS011;11813;50.834;4.280;2022-08-19T10:06:24;9.43;;;5.40;;
23288;SDS011;11813;50.834;4.280;2022-08-19T10:08:54;11.25;;;5.60;;
23288;SDS011;11813;50.834;4.280;2022-08-19T10:11:20;10.70;;;5.78;;
23288;SDS011;11813;50.834;4.280;2022-08-19T10:13:47;8.27;;;5.82;;
23288;SDS011;11813;50.834;4.280;2022-08-19T10:16:15;7.93;;;5.45;;
23288;SDS011;11813;50.834;4.280;2022-08-19T10:18:44;11.63;;;6.45;;
23288;SDS011;11813;50.834;4.280;2022-08-19T10:23:39;9.57;;;6.60;;
23288;SDS011;11813;50.834;4.280;2022-08-19T10:26:09;10.65;;;6.00;;
23288;SDS011;11813;50.834;4.280;2022-08-19T10:28:36;12.98;;;7.03;;
23288;SDS011;11813;50.834;4.280;2022-08-19T10:31:09;10.00;;;6.63;;
23288;SDS011;11813;50.834;4.280;2022-08-19T10:33:38;8.25;;;7.00;;
23288;SDS011;11813;50.834;4.280;2022-08-19T10:36:05;9.65;;;6.65;;
23288;SDS011;11813;50.834;4.280;2022-08-19T10:38:42;14.18;;;6.82;;
23288;SDS011;11813;50.834;4.280;2022-08-19T10:41:14;8.43;;;6.10;;
23288;SDS011;11813;50.834;4.280;2022-08-19T10:43:44;8.20;;;7.10;;
23288;SDS011;11813;50.834;4.280;2022-08-19T10:46:14;8.27;;;6.80;;
23288;SDS011;11813;50.834;4.280;2022-08-19T10:48:41;8.65;;;7.35;;
23288;SDS011;11813;50.834;4.280;2022-08-19T10:51:06;9.90;;;7.72;;
23288;SDS011;11813;50.834;4.280;2022-08-19T10:53:52;9.40;;;7.22;;
23288;SDS011;11813;50.834;4.280;2022-08-19T10:56:18;9.25;;;6.65;;
23288;SDS011;11813;50.834;4.280;2022-08-19T10:59:02;7.90;;;6.40;;
23288;SDS011;11813;50.834;4.280;2022-08-19T11:01:29;10.07;;;7.20;;
23288;SDS011;11813;50.834;4.280;2022-08-19T11:03:58;9.90;;;7.28;;
23288;SDS011;11813;50.834;4.280;2022-08-19T11:06:28;8.55;;;6.32;;
23288;SDS011;11813;50.834;4.280;2022-08-19T11:08:55;10.32;;;6.43;;
23288;SDS011;11813;50.834;4.280;2022-08-19T11:11:21;9.43;;;6.45;;
23288;SDS011;11813;50.834;4.280;2022-08-19T11:13:47;9.57;;;6.45;;
23288;SDS011;11813;50.834;4.280;2022-08-19T11:16:24;10.93;;;8.35;;
23288;SDS011;11813;50.834;4.280;2022-08-19T11:18:53;14.20;;;8.63;;
23288;SDS011;11813;50.834;4.280;2022-08-19T11:21:24;15.10;;;10.30;;
23288;SDS011;11813;50.834;4.280;2022-08-19T11:23:53;13.48;;;9.52;;
23288;SDS011;11813;50.834;4.280;2022-08-19T11:26:21;13.75;;;9.40;;
23288;SDS011;11813;50.834;4.280;2022-08-19T11:28:47;11.25;;;8.45;;
23288;SDS011;11813;50.834;4.280;2022-08-19T11:31:16;13.65;;;8.95;;
23288;SDS011;11813;50.834;4.280;2022-08-19T11:33:44;14.02;;;9.27;;
23288;SDS011;11813;50.834;4.280;2022-08-19T11:36:11;9.98;;;8.75;;
23288;SDS011;11813;50.834;4.280;2022-08-19T11:38:37;11.57;;;9.18;;
23288;SDS011;11813;50.834;4.280;2022-08-19T11:41:03;11.73;;;9.13;;
23288;SDS011;11813;50.834;4.280;2022-08-19T11:43:32;10.07;;;7.93;;
23288;SDS011;11813;50.834;4.280;2022-08-19T11:45:58;11.95;;;8.50;;
23288;SDS011;11813;50.834;4.280;2022-08-19T11:48:24;11.40;;;7.18;;
23288;SDS011;11813;50.834;4.280;2022-08-19T11:50:53;10.45;;;7.45;;
23288;SDS011;11813;50.834;4.280;2022-08-19T11:53:21;7.65;;;6.45;;
23288;SDS011;11813;50.834;4.280;2022-08-19T11:55:48;7.97;;;6.40;;
23288;SDS011;11813;50.834;4.280;2022-08-19T11:58:15;6.82;;;5.85;;
23288;SDS011;11813;50.834;4.280;2022-08-19T12:00:42;10.57;;;6.57;;
23288;SDS011;11813;50.834;4.280;2022-08-19T12:03:10;6.70;;;5.82;;
23288;SDS011;11813;50.834;4.280;2022-08-19T12:05:37;8.32;;;6.03;;
23288;SDS011;11813;50.834;4.280;2022-08-19T12:08:05;8.35;;;5.60;;
23288;SDS011;11813;50.834;4.280;2022-08-19T12:10:31;8.93;;;5.45;;
23288;SDS011;11813;50.834;4.280;2022-08-19T12:12:57;6.47;;;5.88;;
23288;SDS011;11813;50.834;4.280;2022-08-19T12:15:22;11.52;;;5.07;;
23288;SDS011;11813;50.834;4.280;2022-08-19T12:17:48;5.57;;;5.05;;
23288;SDS011;11813;50.834;4.280;2022-08-19T12:20:15;5.90;;;4.40;;
23288;SDS011;11813;50.834;4.280;2022-08-19T12:22:42;4.35;;;3.95;;
23288;SDS011;11813;50.834;4.280;2022-08-19T12:25:11;5.00;;;4.13;;
23288;SDS011;11813;50.834;4.280;2022-08-19T12:27:37;5.25;;;4.28;;
23288;SDS011;11813;50.834;4.280;2022-08-19T12:30:04;4.25;;;3.83;;
23288;SDS011;11813;50.834;4.280;2022-08-19T12:32:31;6.15;;;4.78;;
23288;SDS011;11813;50.834;4.280;2022-08-19T12:34:56;5.60;;;3.88;;
23288;SDS011;11813;50.834;4.280;2022-08-19T12:37:22;5.10;;;3.47;;
23288;SDS011;11813;50.834;4.280;2022-08-19T12:39:47;3.17;;;2.80;;
23288;SDS011;11813;50.834;4.280;2022-08-19T12:42:13;5.80;;;4.00;;
23288;SDS011;11813;50.834;4.280;2022-08-19T12:44:40;6.45;;;3.35;;
23288;SDS011;11813;50.834;4.280;2022-08-19T12:47:07;6.35;;;3.45;;
23288;SDS011;11813;50.834;4.280;2022-08-19T12:49:35;4.00;;;3.60;;
23288;SDS011;11813;50.834;4.280;2022-08-19T12:52:02;3.88;;;3.47;;
23288;SDS011;11813;50.834;4.280;2022-08-19T12:54:29;4.80;;;3.50;;
23288;SDS011;11813;50.834;4.280;2022-08-19T12:56:55;4.60;;;3.72;;
23288;SDS011;11813;50.834;4.280;2022-08-19T12:59:21;4.47;;;3.78;;
23288;SDS011;11813;50.834;4.280;2022-08-19T13:01:47;6.57;;;3.80;;
23288;SDS011;11813;50.834;4.280;2022-08-19T13:04:13;5.35;;;3.40;;
23288;SDS011;11813;50.834;4.280;2022-08-19T13:06:39;6.35;;;3.17;;
23288;SDS011;11813;50.834;4.280;2022-08-19T13:09:04;4.07;;;2.83;;
23288;SDS011;11813;50.834;4.280;2022-08-19T13:11:30;11.50;;;2.72;;
23288;SDS011;11813;50.834;4.280;2022-08-19T13:13:58;3.28;;;2.70;;
23288;SDS011;11813;50.834;4.280;2022-08-19T13:16:25;5.70;;;3.83;;
23288;SDS011;11813;50.834;4.280;2022-08-19T13:18:52;6.40;;;4.03;;
23288;SDS011;11813;50.834;4.280;2022-08-19T13:21:20;3.65;;;3.20;;
23288;SDS011;11813;50.834;4.280;2022-08-19T13:23:48;4.90;;;3.20;;
23288;SDS011;11813;50.834;4.280;2022-08-19T13:26:14;4.55;;;3.35;;
23288;SDS011;11813;50.834;4.280;2022-08-19T13:28:41;7.80;;;3.70;;
23288;SDS011;11813;50.834;4.280;2022-08-19T13:31:27;4.22;;;3.20;;
23288;SDS011;11813;50.834;4.280;2022-08-19T13:34:13;4.20;;;3.35;;
23288;SDS011;11813;50.834;4.280;2022-08-19T13:36:40;4.05;;;3.55;;
23288;SDS011;11813;50.834;4.280;2022-08-19T13:39:06;2.70;;;2.45;;
23288;SDS011;11813;50.834;4.280;2022-08-19T13:41:36;5.22;;;2.95;;
23288;SDS011;11813;50.834;4.280;2022-08-19T13:44:03;5.25;;;2.60;;
23288;SDS011;11813;50.834;4.280;2022-08-19T13:46:30;4.80;;;2.90;;
23288;SDS011;11813;50.834;4.280;2022-08-19T13:48:56;4.82;;;2.80;;
23288;SDS011;11813;50.834;4.280;2022-08-19T13:51:22;3.67;;;2.90;;
23288;SDS011;11813;50.834;4.280;2022-08-19T13:53:47;6.95;;;2.80;;
23288;SDS011;11813;50.834;4.280;2022-08-19T13:56:14;3.10;;;2.75;;
23288;SDS011;11813;50.834;4.280;2022-08-19T13:58:42;2.17;;;1.80;;
23288;SDS011;11813;50.834;4.280;2022-08-19T14:01:08;7.40;;;2.53;;
23288;SDS011;11813;50.834;4.280;2022-08-19T14:03:34;3.38;;;2.50;;
23288;SDS011;11813;50.834;4.280;2022-08-19T14:06:00;4.20;;;3.35;;
23288;SDS011;11813;50.834;4.280;2022-08-19T14:08:27;4.40;;;2.28;;
23288;SDS011;11813;50.834;4.280;2022-08-19T14:10:53;2.97;;;1.70;;
23288;SDS011;11813;50.834;4.280;2022-08-19T14:13:20;3.92;;;2.10;;
23288;SDS011;11813;50.834;4.280;2022-08-19T14:15:47;8.95;;;2.40;;
23288;SDS011;11813;50.834;4.280;2022-08-19T14:18:14;2.50;;;2.30;;
23288;SDS011;11813;50.834;4.280;2022-08-19T14:20:41;5.50;;;2.78;;
23288;SDS011;11813;50.834;4.280;2022-08-19T14:23:07;3.10;;;2.80;;
23288;SDS011;11813;50.834;4.280;2022-08-19T14:25:33;4.00;;;2.85;;
23288;SDS011;11813;50.834;4.280;2022-08-19T14:27:59;3.13;;;2.92;;
23288;SDS011;11813;50.834;4.280;2022-08-19T14:30:26;4.07;;;3.08;;
23288;SDS011;11813;50.834;4.280;2022-08-19T14:32:56;2.90;;;2.70;;
23288;SDS011;11813;50.834;4.280;2022-08-19T14:35:23;3.22;;;2.88;;
23288;SDS011;11813;50.834;4.280;2022-08-19T14:37:50;4.55;;;2.35;;
23288;SDS011;11813;50.834;4.280;2022-08-19T14:40:20;2.25;;;2.05;;
23288;SDS011;11813;50.834;4.280;2022-08-19T14:42:50;2.50;;;1.50;;
23288;SDS011;11813;50.834;4.280;2022-08-19T14:45:17;1.52;;;1.42;;
23288;SDS011;11813;50.834;4.280;2022-08-19T14:47:42;2.53;;;1.70;;
23288;SDS011;11813;50.834;4.280;2022-08-19T14:50:09;2.72;;;1.90;;
23288;SDS011;11813;50.834;4.280;2022-08-19T14:52:36;2.40;;;1.98;;